RYR4SM GCFV-LEMD
Flight info
| Callsign | RYR4SM |
|---|---|
| Flight time | 2h 13m |
| Altitude | 36000 |
| Route | VASTO UN858 AKUDA DCT PESAS N858 PARKA Z165 SOTUK |
| Aircraft | B738/M-SDE3FGILRWY/SB1 |
Departure
| Time | 2026-05-06 19:18 |
|---|---|
| Airport | Fuerteventura Airport (GCFV) |
Arrival
| Time | 2026-05-06 21:31 |
|---|---|
| Airport | Adolfo Suárez Madrid–Barajas Airport (LEMD) |
| Time | Latitude | Longitude | Altitude | Speed | Heading |
|---|---|---|---|---|---|
| 2026-05-06 18:56 | 28.45546 | -13.86821 | 89 ft | 0 kts | 278° |
| 2026-05-06 19:08 | 28.45545 | -13.86813 | 90 ft | 4 kts | 272° |
| 2026-05-06 19:08 | 28.45546 | -13.86784 | 89 ft | 4 kts | 267° |
| 2026-05-06 19:08 | 28.45550 | -13.86754 | 88 ft | 4 kts | 245° |
| 2026-05-06 19:09 | 28.45565 | -13.86732 | 91 ft | 4 kts | 203° |
| 2026-05-06 19:09 | 28.45580 | -13.86728 | 88 ft | 1 kts | 182° |
| 2026-05-06 19:09 | 28.45582 | -13.86728 | 88 ft | 1 kts | 182° |
| 2026-05-06 19:11 | 28.45572 | -13.86728 | 88 ft | 5 kts | 182° |
| 2026-05-06 19:11 | 28.45513 | -13.86730 | 87 ft | 12 kts | 181° |
| 2026-05-06 19:11 | 28.45420 | -13.86732 | 87 ft | 11 kts | 176° |
| 2026-05-06 19:12 | 28.45374 | -13.86674 | 85 ft | 11 kts | 98° |
| 2026-05-06 19:12 | 28.45363 | -13.86592 | 86 ft | 10 kts | 120° |
| 2026-05-06 19:12 | 28.45291 | -13.86567 | 83 ft | 12 kts | 180° |
| 2026-05-06 19:12 | 28.45195 | -13.86571 | 82 ft | 16 kts | 185° |
| 2026-05-06 19:13 | 28.45073 | -13.86576 | 82 ft | 19 kts | 181° |
| 2026-05-06 19:13 | 28.44925 | -13.86580 | 75 ft | 23 kts | 181° |
| 2026-05-06 19:13 | 28.44758 | -13.86586 | 69 ft | 25 kts | 181° |
| 2026-05-06 19:13 | 28.44591 | -13.86589 | 72 ft | 23 kts | 181° |
| 2026-05-06 19:14 | 28.44432 | -13.86593 | 66 ft | 23 kts | 181° |
| 2026-05-06 19:14 | 28.44273 | -13.86601 | 67 ft | 23 kts | 182° |
| 2026-05-06 19:14 | 28.44108 | -13.86606 | 64 ft | 25 kts | 182° |
| 2026-05-06 19:14 | 28.43940 | -13.86612 | 57 ft | 23 kts | 181° |
| 2026-05-06 19:15 | 28.43782 | -13.86617 | 58 ft | 22 kts | 181° |
| 2026-05-06 19:15 | 28.43627 | -13.86623 | 53 ft | 24 kts | 181° |
| 2026-05-06 19:15 | 28.43459 | -13.86628 | 50 ft | 16 kts | 181° |
| 2026-05-06 19:15 | 28.43363 | -13.86631 | 49 ft | 13 kts | 181° |
| 2026-05-06 19:16 | 28.43305 | -13.86591 | 51 ft | 10 kts | 104° |
| 2026-05-06 19:16 | 28.43301 | -13.86517 | 53 ft | 9 kts | 90° |
| 2026-05-06 19:16 | 28.43318 | -13.86450 | 52 ft | 9 kts | 41° |
| 2026-05-06 19:16 | 28.43372 | -13.86438 | 54 ft | 6 kts | 1° |
| 2026-05-06 19:17 | 28.43434 | -13.86437 | 54 ft | 21 kts | 1° |
| 2026-05-06 19:17 | 28.43822 | -13.86424 | 55 ft | 90 kts | 2° |
| 2026-05-06 19:17 | 28.44327 | -13.86406 | 67 ft | 129 kts | 2° |
| 2026-05-06 19:17 | 28.45765 | -13.86342 | 418 ft | 169 kts | 7° |
| 2026-05-06 19:18 | 28.46921 | -13.86284 | 1293 ft | 162 kts | 5° |
| 2026-05-06 19:18 | 28.48041 | -13.86123 | 2060 ft | 170 kts | 24° |
| 2026-05-06 19:18 | 28.48951 | -13.85160 | 2474 ft | 195 kts | 59° |
| 2026-05-06 19:18 | 28.49525 | -13.83661 | 2795 ft | 215 kts | 57° |
| 2026-05-06 19:19 | 28.50145 | -13.82766 | 3016 ft | 224 kts | 37° |
| 2026-05-06 19:19 | 28.51593 | -13.81974 | 3458 ft | 241 kts | 18° |
| 2026-05-06 19:19 | 28.53183 | -13.81351 | 4337 ft | 244 kts | 19° |
| 2026-05-06 19:19 | 28.55319 | -13.80303 | 5284 ft | 256 kts | 23° |
| 2026-05-06 19:20 | 28.56934 | -13.79444 | 6162 ft | 258 kts | 22° |
| 2026-05-06 19:20 | 28.58034 | -13.78871 | 6715 ft | 260 kts | 21° |
| 2026-05-06 19:20 | 28.60269 | -13.77737 | 7621 ft | 269 kts | 20° |
| 2026-05-06 19:20 | 28.61986 | -13.76869 | 8418 ft | 272 kts | 21° |
| 2026-05-06 19:21 | 28.63139 | -13.76284 | 8895 ft | 277 kts | 22° |
| 2026-05-06 19:21 | 28.64927 | -13.75377 | 9554 ft | 286 kts | 20° |
| 2026-05-06 19:21 | 28.66758 | -13.74449 | 10270 ft | 291 kts | 20° |
| 2026-05-06 19:21 | 28.68672 | -13.73478 | 10521 ft | 314 kts | 21° |
| 2026-05-06 19:22 | 28.71445 | -13.72069 | 10807 ft | 343 kts | 21° |
| 2026-05-06 19:22 | 28.72929 | -13.71314 | 11117 ft | 350 kts | 21° |
| 2026-05-06 19:22 | 28.75176 | -13.70170 | 11750 ft | 356 kts | 21° |
| 2026-05-06 19:22 | 28.77452 | -13.69029 | 12477 ft | 357 kts | 18° |
| 2026-05-06 19:23 | 28.79841 | -13.68320 | 13265 ft | 354 kts | 4° |
| 2026-05-06 19:23 | 28.82265 | -13.68127 | 13978 ft | 355 kts | 359° |
| 2026-05-06 19:23 | 28.84748 | -13.67993 | 14549 ft | 360 kts | 359° |
| 2026-05-06 19:23 | 28.87268 | -13.67865 | 15158 ft | 364 kts | 359° |
| 2026-05-06 19:24 | 28.89812 | -13.67731 | 15789 ft | 368 kts | 359° |
| 2026-05-06 19:24 | 28.92380 | -13.67586 | 16415 ft | 371 kts | 359° |
| 2026-05-06 19:24 | 28.94977 | -13.67433 | 17019 ft | 375 kts | 359° |
| 2026-05-06 19:24 | 28.97597 | -13.67273 | 17619 ft | 379 kts | 359° |
| 2026-05-06 19:25 | 29.00247 | -13.67108 | 18216 ft | 383 kts | 359° |
| 2026-05-06 19:25 | 29.02922 | -13.66939 | 18771 ft | 386 kts | 359° |
| 2026-05-06 19:25 | 29.05606 | -13.66767 | 19363 ft | 387 kts | 359° |
| 2026-05-06 19:25 | 29.08294 | -13.66594 | 19962 ft | 388 kts | 359° |
| 2026-05-06 19:26 | 29.10988 | -13.66420 | 20542 ft | 390 kts | 359° |
| 2026-05-06 19:26 | 29.13711 | -13.66244 | 21142 ft | 391 kts | 359° |
| 2026-05-06 19:26 | 29.16435 | -13.66069 | 21701 ft | 392 kts | 359° |
| 2026-05-06 19:26 | 29.19166 | -13.65893 | 22228 ft | 395 kts | 359° |
| 2026-05-06 19:27 | 29.21918 | -13.65716 | 22740 ft | 397 kts | 359° |
| 2026-05-06 19:27 | 29.24677 | -13.65538 | 23255 ft | 399 kts | 360° |
| 2026-05-06 19:27 | 29.27465 | -13.65359 | 23733 ft | 401 kts | 360° |
| 2026-05-06 19:27 | 29.30259 | -13.65178 | 24153 ft | 403 kts | 360° |
| 2026-05-06 19:28 | 29.33058 | -13.64998 | 24586 ft | 404 kts | 360° |
| 2026-05-06 19:28 | 29.35877 | -13.64816 | 25010 ft | 406 kts | 360° |
| 2026-05-06 19:28 | 29.38702 | -13.64633 | 25419 ft | 408 kts | 360° |
| 2026-05-06 19:28 | 29.41538 | -13.64450 | 25832 ft | 409 kts | 360° |
| 2026-05-06 19:29 | 29.44390 | -13.64265 | 26234 ft | 411 kts | 360° |
| 2026-05-06 19:29 | 29.47250 | -13.64080 | 26625 ft | 412 kts | 360° |
| 2026-05-06 19:29 | 29.50120 | -13.63894 | 27000 ft | 414 kts | 360° |
| 2026-05-06 19:29 | 29.53004 | -13.63708 | 27369 ft | 416 kts | 360° |
| 2026-05-06 19:30 | 29.55902 | -13.63520 | 27739 ft | 418 kts | 360° |
| 2026-05-06 19:30 | 29.58807 | -13.63331 | 28104 ft | 419 kts | 360° |
| 2026-05-06 19:30 | 29.61723 | -13.63142 | 28454 ft | 421 kts | 360° |
| 2026-05-06 19:30 | 29.64650 | -13.62952 | 28802 ft | 422 kts | 360° |
| 2026-05-06 19:31 | 29.67593 | -13.62761 | 29123 ft | 424 kts | 360° |
| 2026-05-06 19:31 | 29.70545 | -13.62569 | 29466 ft | 425 kts | 360° |
| 2026-05-06 19:31 | 29.76434 | -13.62186 | 30112 ft | 428 kts | 360° |
| 2026-05-06 19:32 | 29.79446 | -13.61990 | 30414 ft | 428 kts | 360° |
| 2026-05-06 19:32 | 29.82420 | -13.61795 | 30776 ft | 427 kts | 360° |
| 2026-05-06 19:32 | 29.85378 | -13.61602 | 31143 ft | 425 kts | 360° |
| 2026-05-06 19:32 | 29.88333 | -13.61408 | 31465 ft | 425 kts | 360° |
| 2026-05-06 19:33 | 29.91244 | -13.61218 | 31763 ft | 425 kts | 360° |
| 2026-05-06 19:33 | 29.94196 | -13.61026 | 32087 ft | 424 kts | 360° |
| 2026-05-06 19:33 | 29.97138 | -13.60833 | 32423 ft | 423 kts | 360° |
| 2026-05-06 19:33 | 30.00075 | -13.60641 | 32739 ft | 423 kts | 360° |
| 2026-05-06 19:34 | 30.03010 | -13.60449 | 33036 ft | 422 kts | 360° |
| 2026-05-06 19:34 | 30.05942 | -13.60257 | 33342 ft | 422 kts | 360° |
| 2026-05-06 19:34 | 30.08869 | -13.60066 | 33653 ft | 421 kts | 360° |
| 2026-05-06 19:34 | 30.11794 | -13.59874 | 33949 ft | 420 kts | 360° |
| 2026-05-06 19:35 | 30.14714 | -13.59683 | 34197 ft | 420 kts | 359° |
| 2026-05-06 19:35 | 30.17634 | -13.59491 | 34416 ft | 421 kts | 359° |
| 2026-05-06 19:35 | 30.20556 | -13.59300 | 34617 ft | 421 kts | 359° |
| 2026-05-06 19:35 | 30.23482 | -13.59108 | 34823 ft | 421 kts | 359° |
| 2026-05-06 19:36 | 30.26411 | -13.58915 | 35071 ft | 421 kts | 359° |
| 2026-05-06 19:36 | 30.29335 | -13.58722 | 35300 ft | 420 kts | 359° |
| 2026-05-06 19:36 | 30.32257 | -13.58530 | 35474 ft | 421 kts | 359° |
| 2026-05-06 19:36 | 30.35186 | -13.58338 | 35646 ft | 422 kts | 359° |
| 2026-05-06 19:37 | 30.38121 | -13.58144 | 35851 ft | 422 kts | 359° |
| 2026-05-06 19:37 | 30.41052 | -13.57951 | 36023 ft | 423 kts | 359° |
| 2026-05-06 19:37 | 30.46963 | -13.57534 | 36031 ft | 427 kts | 3° |
| 2026-05-06 19:38 | 30.52695 | -13.55627 | 36037 ft | 433 kts | 20° |
| 2026-05-06 19:38 | 30.57861 | -13.51939 | 36047 ft | 437 kts | 30° |
| 2026-05-06 19:39 | 30.62836 | -13.47876 | 36035 ft | 437 kts | 30° |
| 2026-05-06 19:39 | 30.67813 | -13.43847 | 36042 ft | 436 kts | 30° |
| 2026-05-06 19:40 | 30.72814 | -13.39843 | 36041 ft | 437 kts | 30° |
| 2026-05-06 19:40 | 30.77839 | -13.35830 | 36041 ft | 439 kts | 30° |
| 2026-05-06 19:41 | 30.82880 | -13.31796 | 36041 ft | 441 kts | 30° |
| 2026-05-06 19:41 | 30.87955 | -13.27728 | 36049 ft | 444 kts | 30° |
| 2026-05-06 19:42 | 30.93054 | -13.23640 | 36028 ft | 445 kts | 30° |
| 2026-05-06 19:42 | 30.98183 | -13.19568 | 36030 ft | 446 kts | 29° |
| 2026-05-06 19:43 | 31.03317 | -13.15496 | 36034 ft | 446 kts | 29° |
| 2026-05-06 19:43 | 31.08448 | -13.11418 | 36029 ft | 446 kts | 29° |
| 2026-05-06 19:44 | 31.13574 | -13.07333 | 36059 ft | 446 kts | 30° |
| 2026-05-06 19:44 | 31.18696 | -13.03246 | 36030 ft | 446 kts | 30° |
| 2026-05-06 19:45 | 31.23812 | -12.99157 | 36023 ft | 445 kts | 30° |
| 2026-05-06 19:45 | 31.28920 | -12.95070 | 36024 ft | 444 kts | 30° |
| 2026-05-06 19:46 | 31.33983 | -12.91014 | 36031 ft | 444 kts | 30° |
| 2026-05-06 19:46 | 31.39069 | -12.86933 | 36025 ft | 443 kts | 30° |
| 2026-05-06 19:47 | 31.44175 | -12.82831 | 36043 ft | 442 kts | 30° |
| 2026-05-06 19:47 | 31.49243 | -12.78755 | 36025 ft | 442 kts | 30° |
| 2026-05-06 19:48 | 31.54308 | -12.74675 | 36026 ft | 442 kts | 30° |
| 2026-05-06 19:48 | 31.59343 | -12.70614 | 36032 ft | 443 kts | 30° |
| 2026-05-06 19:49 | 31.64423 | -12.66512 | 36031 ft | 444 kts | 30° |
| 2026-05-06 19:49 | 31.69514 | -12.62395 | 36030 ft | 445 kts | 30° |
| 2026-05-06 19:50 | 31.74619 | -12.58260 | 36039 ft | 447 kts | 30° |
| 2026-05-06 19:50 | 31.79742 | -12.54106 | 36030 ft | 448 kts | 30° |
| 2026-05-06 19:51 | 31.84868 | -12.49942 | 36027 ft | 448 kts | 30° |
| 2026-05-06 19:51 | 31.90002 | -12.45766 | 36027 ft | 448 kts | 30° |
| 2026-05-06 19:52 | 31.95132 | -12.41588 | 36027 ft | 448 kts | 30° |
| 2026-05-06 19:52 | 32.00261 | -12.37411 | 36029 ft | 448 kts | 30° |
| 2026-05-06 19:53 | 32.05394 | -12.33237 | 36029 ft | 449 kts | 30° |
| 2026-05-06 19:53 | 32.10529 | -12.29056 | 36026 ft | 449 kts | 30° |
| 2026-05-06 19:54 | 32.15661 | -12.24869 | 36025 ft | 449 kts | 30° |
| 2026-05-06 19:54 | 32.20797 | -12.20672 | 36025 ft | 449 kts | 30° |
| 2026-05-06 19:55 | 32.25927 | -12.16473 | 36022 ft | 449 kts | 30° |
| 2026-05-06 19:55 | 32.31053 | -12.12272 | 36047 ft | 448 kts | 30° |
| 2026-05-06 19:56 | 32.36180 | -12.08064 | 36029 ft | 448 kts | 30° |
| 2026-05-06 19:56 | 32.41292 | -12.03863 | 36019 ft | 447 kts | 30° |
| 2026-05-06 19:57 | 32.46398 | -11.99661 | 36023 ft | 447 kts | 30° |
| 2026-05-06 19:57 | 32.51510 | -11.95449 | 36025 ft | 448 kts | 30° |
| 2026-05-06 19:58 | 32.56592 | -11.91255 | 36025 ft | 449 kts | 30° |
| 2026-05-06 19:58 | 32.61723 | -11.87015 | 36024 ft | 450 kts | 30° |
| 2026-05-06 19:59 | 32.66868 | -11.82756 | 36029 ft | 451 kts | 30° |
| 2026-05-06 19:59 | 32.72011 | -11.78493 | 36009 ft | 451 kts | 30° |
| 2026-05-06 20:00 | 32.77158 | -11.74220 | 36025 ft | 451 kts | 30° |
| 2026-05-06 20:00 | 32.82289 | -11.69955 | 36015 ft | 450 kts | 30° |
| 2026-05-06 20:01 | 32.87405 | -11.65696 | 36015 ft | 449 kts | 30° |
| 2026-05-06 20:01 | 32.92517 | -11.61435 | 36023 ft | 448 kts | 30° |
| 2026-05-06 20:02 | 32.97614 | -11.57179 | 36028 ft | 447 kts | 30° |
| 2026-05-06 20:02 | 33.02704 | -11.52924 | 36015 ft | 446 kts | 30° |
| 2026-05-06 20:03 | 33.07781 | -11.48673 | 36028 ft | 446 kts | 30° |
| 2026-05-06 20:03 | 33.12845 | -11.44427 | 36024 ft | 446 kts | 30° |
| 2026-05-06 20:04 | 33.17911 | -11.40173 | 36033 ft | 446 kts | 30° |
| 2026-05-06 20:04 | 33.22978 | -11.35892 | 36028 ft | 446 kts | 30° |
| 2026-05-06 20:05 | 33.28001 | -11.31632 | 36029 ft | 446 kts | 31° |
| 2026-05-06 20:05 | 33.33068 | -11.27329 | 36028 ft | 447 kts | 31° |
| 2026-05-06 20:06 | 33.38145 | -11.23012 | 36025 ft | 449 kts | 31° |
| 2026-05-06 20:06 | 33.43243 | -11.18672 | 36026 ft | 450 kts | 31° |
| 2026-05-06 20:07 | 33.48356 | -11.14313 | 36024 ft | 452 kts | 31° |
| 2026-05-06 20:07 | 33.53485 | -11.09933 | 36022 ft | 453 kts | 31° |
| 2026-05-06 20:08 | 33.58615 | -11.05546 | 36019 ft | 453 kts | 31° |
| 2026-05-06 20:08 | 33.63725 | -11.01169 | 36015 ft | 453 kts | 31° |
| 2026-05-06 20:09 | 33.67986 | -10.97514 | 36015 ft | 452 kts | 31° |
| 2026-05-06 20:09 | 33.73101 | -10.93121 | 36048 ft | 452 kts | 31° |
| 2026-05-06 20:10 | 33.78216 | -10.88723 | 36022 ft | 452 kts | 31° |
| 2026-05-06 20:10 | 33.83327 | -10.84321 | 36011 ft | 452 kts | 31° |
| 2026-05-06 20:11 | 33.88436 | -10.79914 | 36019 ft | 452 kts | 31° |
| 2026-05-06 20:11 | 33.93544 | -10.75501 | 36017 ft | 452 kts | 31° |
| 2026-05-06 20:12 | 33.98649 | -10.71083 | 36002 ft | 452 kts | 31° |
| 2026-05-06 20:12 | 34.03754 | -10.66660 | 36016 ft | 452 kts | 31° |
| 2026-05-06 20:13 | 34.08863 | -10.62225 | 36013 ft | 453 kts | 31° |
| 2026-05-06 20:13 | 34.13972 | -10.57785 | 36009 ft | 453 kts | 31° |
| 2026-05-06 20:14 | 34.19087 | -10.53332 | 36011 ft | 453 kts | 31° |
| 2026-05-06 20:14 | 34.24207 | -10.48869 | 36015 ft | 454 kts | 31° |
| 2026-05-06 20:15 | 34.29334 | -10.44393 | 36038 ft | 455 kts | 31° |
| 2026-05-06 20:15 | 34.34439 | -10.39928 | 36017 ft | 457 kts | 31° |
| 2026-05-06 20:16 | 34.39591 | -10.35415 | 36012 ft | 457 kts | 31° |
| 2026-05-06 20:16 | 34.44747 | -10.30891 | 36010 ft | 458 kts | 31° |
| 2026-05-06 20:17 | 34.49908 | -10.26356 | 36002 ft | 458 kts | 31° |
| 2026-05-06 20:17 | 34.55069 | -10.21814 | 36002 ft | 458 kts | 31° |
| 2026-05-06 20:18 | 34.60210 | -10.17283 | 36008 ft | 459 kts | 32° |
| 2026-05-06 20:18 | 34.65378 | -10.12730 | 36008 ft | 459 kts | 32° |
| 2026-05-06 20:19 | 34.70553 | -10.08186 | 36005 ft | 459 kts | 32° |
| 2026-05-06 20:19 | 34.75733 | -10.03630 | 36005 ft | 459 kts | 32° |
| 2026-05-06 20:20 | 34.80907 | -9.99069 | 36006 ft | 460 kts | 32° |
| 2026-05-06 20:20 | 34.86082 | -9.94498 | 36013 ft | 460 kts | 32° |
| 2026-05-06 20:21 | 34.91260 | -9.89917 | 36003 ft | 460 kts | 32° |
| 2026-05-06 20:21 | 34.96435 | -9.85331 | 35997 ft | 459 kts | 32° |
| 2026-05-06 20:22 | 35.01597 | -9.80750 | 35988 ft | 459 kts | 32° |
| 2026-05-06 20:22 | 35.06764 | -9.76157 | 36002 ft | 459 kts | 32° |
| 2026-05-06 20:23 | 35.11929 | -9.71559 | 36031 ft | 460 kts | 32° |
| 2026-05-06 20:23 | 35.17111 | -9.66938 | 36000 ft | 461 kts | 32° |
| 2026-05-06 20:24 | 35.22262 | -9.62337 | 35998 ft | 462 kts | 32° |
| 2026-05-06 20:24 | 35.27451 | -9.57694 | 35995 ft | 462 kts | 32° |
| 2026-05-06 20:25 | 35.32636 | -9.53048 | 35991 ft | 462 kts | 32° |
| 2026-05-06 20:25 | 35.37825 | -9.48390 | 35983 ft | 462 kts | 32° |
| 2026-05-06 20:26 | 35.43008 | -9.43731 | 35989 ft | 462 kts | 32° |
| 2026-05-06 20:26 | 35.48191 | -9.39063 | 35991 ft | 462 kts | 33° |
| 2026-05-06 20:27 | 35.53373 | -9.34389 | 35984 ft | 462 kts | 33° |
| 2026-05-06 20:27 | 35.58551 | -9.29711 | 35984 ft | 462 kts | 33° |
| 2026-05-06 20:28 | 35.63736 | -9.25019 | 35981 ft | 463 kts | 33° |
| 2026-05-06 20:28 | 35.68917 | -9.20322 | 35981 ft | 463 kts | 33° |
| 2026-05-06 20:29 | 35.74098 | -9.15618 | 35977 ft | 463 kts | 33° |
| 2026-05-06 20:29 | 35.79281 | -9.10904 | 35979 ft | 463 kts | 33° |
| 2026-05-06 20:30 | 35.87060 | -9.03814 | 35975 ft | 464 kts | 33° |
| 2026-05-06 20:31 | 35.92249 | -8.99075 | 35996 ft | 465 kts | 33° |
| 2026-05-06 20:31 | 35.97368 | -8.94144 | 35965 ft | 470 kts | 42° |
| 2026-05-06 20:32 | 36.01712 | -8.88085 | 35974 ft | 472 kts | 47° |
| 2026-05-06 20:32 | 36.05939 | -8.81864 | 35967 ft | 473 kts | 47° |
| 2026-05-06 20:33 | 36.10188 | -8.75663 | 35960 ft | 473 kts | 47° |
| 2026-05-06 20:33 | 36.14460 | -8.69489 | 35951 ft | 473 kts | 47° |
| 2026-05-06 20:34 | 36.18752 | -8.63299 | 35963 ft | 473 kts | 47° |
| 2026-05-06 20:34 | 36.23038 | -8.57109 | 35964 ft | 474 kts | 47° |
| 2026-05-06 20:35 | 36.27324 | -8.50903 | 35957 ft | 474 kts | 47° |
| 2026-05-06 20:35 | 36.31606 | -8.44689 | 35950 ft | 474 kts | 47° |
| 2026-05-06 20:36 | 36.35886 | -8.38467 | 35950 ft | 474 kts | 47° |
| 2026-05-06 20:36 | 36.40161 | -8.32241 | 35925 ft | 474 kts | 48° |
| 2026-05-06 20:37 | 36.44436 | -8.26004 | 35948 ft | 474 kts | 48° |
| 2026-05-06 20:37 | 36.48713 | -8.19751 | 35945 ft | 476 kts | 48° |
| 2026-05-06 20:38 | 36.52998 | -8.13476 | 35941 ft | 476 kts | 48° |
| 2026-05-06 20:38 | 36.57284 | -8.07187 | 35931 ft | 477 kts | 48° |
| 2026-05-06 20:39 | 36.61570 | -8.00886 | 35921 ft | 477 kts | 48° |
| 2026-05-06 20:39 | 36.65827 | -7.94615 | 35920 ft | 477 kts | 48° |
| 2026-05-06 20:40 | 36.70135 | -7.88258 | 35914 ft | 477 kts | 48° |
| 2026-05-06 20:40 | 36.74380 | -7.81982 | 35933 ft | 476 kts | 48° |
| 2026-05-06 20:41 | 36.78645 | -7.75664 | 35919 ft | 476 kts | 48° |
| 2026-05-06 20:41 | 36.82907 | -7.69339 | 35902 ft | 475 kts | 48° |
| 2026-05-06 20:42 | 36.87155 | -7.63022 | 35910 ft | 474 kts | 48° |
| 2026-05-06 20:42 | 36.91392 | -7.56709 | 35890 ft | 474 kts | 49° |
| 2026-05-06 20:43 | 36.95625 | -7.50390 | 35907 ft | 474 kts | 49° |
| 2026-05-06 20:43 | 36.99854 | -7.44065 | 35901 ft | 474 kts | 49° |
| 2026-05-06 20:44 | 37.04088 | -7.37723 | 35893 ft | 475 kts | 49° |
| 2026-05-06 20:44 | 37.08338 | -7.31387 | 35899 ft | 475 kts | 49° |
| 2026-05-06 20:45 | 37.12597 | -7.25040 | 35899 ft | 476 kts | 49° |
| 2026-05-06 20:45 | 37.16851 | -7.18681 | 35889 ft | 476 kts | 49° |
| 2026-05-06 20:46 | 37.21114 | -7.12312 | 35897 ft | 477 kts | 49° |
| 2026-05-06 20:46 | 37.25385 | -7.05930 | 35895 ft | 478 kts | 49° |
| 2026-05-06 20:47 | 37.29662 | -6.99523 | 35892 ft | 479 kts | 49° |
| 2026-05-06 20:47 | 37.33911 | -6.93142 | 35885 ft | 479 kts | 49° |
| 2026-05-06 20:48 | 37.38217 | -6.86662 | 35882 ft | 480 kts | 49° |
| 2026-05-06 20:48 | 37.42460 | -6.80266 | 35869 ft | 479 kts | 49° |
| 2026-05-06 20:49 | 37.46726 | -6.73822 | 35887 ft | 479 kts | 50° |
| 2026-05-06 20:49 | 37.50985 | -6.67376 | 35879 ft | 479 kts | 50° |
| 2026-05-06 20:50 | 37.55249 | -6.60911 | 35900 ft | 479 kts | 50° |
| 2026-05-06 20:50 | 37.59501 | -6.54450 | 35879 ft | 479 kts | 50° |
| 2026-05-06 20:51 | 37.63746 | -6.47987 | 35871 ft | 478 kts | 50° |
| 2026-05-06 20:51 | 37.67984 | -6.41521 | 35865 ft | 478 kts | 50° |
| 2026-05-06 20:52 | 37.72211 | -6.35060 | 35869 ft | 477 kts | 50° |
| 2026-05-06 20:52 | 37.76432 | -6.28596 | 35867 ft | 477 kts | 50° |
| 2026-05-06 20:53 | 37.80645 | -6.22130 | 35876 ft | 477 kts | 50° |
| 2026-05-06 20:53 | 37.84858 | -6.15652 | 35863 ft | 477 kts | 50° |
| 2026-05-06 20:54 | 37.89070 | -6.09162 | 35861 ft | 477 kts | 50° |
| 2026-05-06 20:54 | 37.93279 | -6.02677 | 35859 ft | 476 kts | 48° |
| 2026-05-06 20:55 | 37.98232 | -5.97193 | 35855 ft | 472 kts | 30° |
| 2026-05-06 20:55 | 38.02860 | -5.93535 | 35861 ft | 472 kts | 29° |
| 2026-05-06 20:56 | 38.08455 | -5.89171 | 35873 ft | 473 kts | 29° |
| 2026-05-06 20:56 | 38.14982 | -5.83977 | 35853 ft | 474 kts | 30° |
| 2026-05-06 20:57 | 38.19609 | -5.80251 | 35861 ft | 474 kts | 30° |
| 2026-05-06 20:57 | 38.25170 | -5.75758 | 35856 ft | 474 kts | 30° |
| 2026-05-06 20:58 | 38.30733 | -5.71258 | 35856 ft | 474 kts | 30° |
| 2026-05-06 20:58 | 38.36291 | -5.66756 | 35858 ft | 473 kts | 30° |
| 2026-05-06 20:59 | 38.41839 | -5.62254 | 35858 ft | 473 kts | 30° |
| 2026-05-06 20:59 | 38.47368 | -5.57759 | 35856 ft | 472 kts | 30° |
| 2026-05-06 21:00 | 38.52890 | -5.53260 | 35869 ft | 472 kts | 30° |
| 2026-05-06 21:00 | 38.58383 | -5.48778 | 35451 ft | 464 kts | 30° |
| 2026-05-06 21:00 | 38.61082 | -5.46575 | 35109 ft | 458 kts | 30° |
| 2026-05-06 21:01 | 38.63767 | -5.44403 | 34727 ft | 455 kts | 30° |
| 2026-05-06 21:01 | 38.66434 | -5.42254 | 34350 ft | 452 kts | 29° |
| 2026-05-06 21:01 | 38.69085 | -5.40117 | 33978 ft | 449 kts | 30° |
| 2026-05-06 21:01 | 38.71727 | -5.37986 | 33540 ft | 447 kts | 30° |
| 2026-05-06 21:02 | 38.74348 | -5.35868 | 33111 ft | 444 kts | 30° |
| 2026-05-06 21:02 | 38.76948 | -5.33762 | 32718 ft | 441 kts | 30° |
| 2026-05-06 21:02 | 38.79527 | -5.31670 | 32359 ft | 438 kts | 29° |
| 2026-05-06 21:02 | 38.82090 | -5.29590 | 31981 ft | 435 kts | 30° |
| 2026-05-06 21:03 | 38.84637 | -5.27521 | 31609 ft | 431 kts | 30° |
| 2026-05-06 21:03 | 38.87165 | -5.25465 | 31246 ft | 429 kts | 30° |
| 2026-05-06 21:03 | 38.89671 | -5.23425 | 30883 ft | 426 kts | 30° |
| 2026-05-06 21:03 | 38.92164 | -5.21395 | 30523 ft | 423 kts | 30° |
| 2026-05-06 21:04 | 38.94638 | -5.19379 | 30169 ft | 420 kts | 30° |
| 2026-05-06 21:04 | 38.97101 | -5.17365 | 29796 ft | 418 kts | 31° |
| 2026-05-06 21:04 | 38.99385 | -5.15062 | 29370 ft | 418 kts | 43° |
| 2026-05-06 21:04 | 39.01331 | -5.12316 | 29003 ft | 414 kts | 53° |
| 2026-05-06 21:05 | 39.02912 | -5.09243 | 28632 ft | 411 kts | 58° |
| 2026-05-06 21:05 | 39.04393 | -5.06118 | 28251 ft | 407 kts | 59° |
| 2026-05-06 21:05 | 39.05849 | -5.03007 | 27884 ft | 404 kts | 59° |
| 2026-05-06 21:05 | 39.07299 | -4.99924 | 27518 ft | 401 kts | 59° |
| 2026-05-06 21:06 | 39.08747 | -4.96873 | 27158 ft | 398 kts | 59° |
| 2026-05-06 21:06 | 39.10191 | -4.93846 | 26788 ft | 395 kts | 58° |
| 2026-05-06 21:06 | 39.11627 | -4.90848 | 26448 ft | 392 kts | 58° |
| 2026-05-06 21:06 | 39.13039 | -4.87904 | 26104 ft | 390 kts | 58° |
| 2026-05-06 21:07 | 39.14457 | -4.84944 | 25760 ft | 387 kts | 58° |
| 2026-05-06 21:07 | 39.15866 | -4.82002 | 25418 ft | 385 kts | 58° |
| 2026-05-06 21:07 | 39.17285 | -4.79035 | 25064 ft | 383 kts | 59° |
| 2026-05-06 21:07 | 39.18657 | -4.76162 | 24728 ft | 381 kts | 59° |
| 2026-05-06 21:08 | 39.20168 | -4.73371 | 24360 ft | 380 kts | 48° |
| 2026-05-06 21:08 | 39.21989 | -4.70918 | 24030 ft | 377 kts | 44° |
| 2026-05-06 21:08 | 39.23868 | -4.68565 | 23672 ft | 377 kts | 43° |
| 2026-05-06 21:08 | 39.25757 | -4.66223 | 23305 ft | 375 kts | 44° |
| 2026-05-06 21:09 | 39.27624 | -4.63886 | 22913 ft | 373 kts | 44° |
| 2026-05-06 21:09 | 39.29466 | -4.61549 | 22557 ft | 371 kts | 44° |
| 2026-05-06 21:09 | 39.31292 | -4.59209 | 22210 ft | 368 kts | 44° |
| 2026-05-06 21:09 | 39.33091 | -4.56887 | 21867 ft | 365 kts | 45° |
| 2026-05-06 21:10 | 39.34879 | -4.54570 | 21562 ft | 361 kts | 44° |
| 2026-05-06 21:10 | 39.36646 | -4.52276 | 21205 ft | 359 kts | 45° |
| 2026-05-06 21:10 | 39.38403 | -4.49992 | 20886 ft | 357 kts | 45° |
| 2026-05-06 21:10 | 39.40146 | -4.47722 | 20556 ft | 355 kts | 45° |
| 2026-05-06 21:11 | 39.41880 | -4.45465 | 20239 ft | 352 kts | 45° |
| 2026-05-06 21:11 | 39.43600 | -4.43223 | 19913 ft | 350 kts | 45° |
| 2026-05-06 21:11 | 39.45312 | -4.40989 | 19595 ft | 348 kts | 45° |
| 2026-05-06 21:11 | 39.47013 | -4.38769 | 19276 ft | 347 kts | 45° |
| 2026-05-06 21:12 | 39.48708 | -4.36556 | 18953 ft | 345 kts | 45° |
| 2026-05-06 21:12 | 39.50392 | -4.34355 | 18643 ft | 344 kts | 45° |
| 2026-05-06 21:12 | 39.52071 | -4.32160 | 18326 ft | 342 kts | 45° |
| 2026-05-06 21:12 | 39.53739 | -4.29977 | 17973 ft | 341 kts | 45° |
| 2026-05-06 21:13 | 39.55400 | -4.27802 | 17631 ft | 338 kts | 45° |
| 2026-05-06 21:13 | 39.57051 | -4.25638 | 17294 ft | 336 kts | 45° |
| 2026-05-06 21:13 | 39.58688 | -4.23491 | 16967 ft | 334 kts | 45° |
| 2026-05-06 21:13 | 39.60316 | -4.21354 | 16643 ft | 332 kts | 45° |
| 2026-05-06 21:14 | 39.61933 | -4.19230 | 16324 ft | 330 kts | 45° |
| 2026-05-06 21:14 | 39.63540 | -4.17117 | 16013 ft | 327 kts | 45° |
| 2026-05-06 21:14 | 39.65135 | -4.15020 | 15697 ft | 326 kts | 45° |
| 2026-05-06 21:14 | 39.66720 | -4.12933 | 15391 ft | 324 kts | 45° |
| 2026-05-06 21:15 | 39.68294 | -4.10861 | 15089 ft | 322 kts | 45° |
| 2026-05-06 21:15 | 39.69863 | -4.08793 | 14774 ft | 320 kts | 45° |
| 2026-05-06 21:15 | 39.71423 | -4.06735 | 14469 ft | 319 kts | 45° |
| 2026-05-06 21:15 | 39.72976 | -4.04685 | 14164 ft | 318 kts | 45° |
| 2026-05-06 21:16 | 39.74521 | -4.02644 | 13867 ft | 317 kts | 45° |
| 2026-05-06 21:16 | 39.76051 | -4.00623 | 13725 ft | 309 kts | 45° |
| 2026-05-06 21:16 | 39.77539 | -3.98656 | 13562 ft | 302 kts | 45° |
| 2026-05-06 21:16 | 39.78994 | -3.96730 | 13453 ft | 294 kts | 45° |
| 2026-05-06 21:17 | 39.80417 | -3.94848 | 13372 ft | 291 kts | 45° |
| 2026-05-06 21:17 | 39.81839 | -3.92964 | 13141 ft | 295 kts | 45° |
| 2026-05-06 21:17 | 39.83285 | -3.91046 | 12851 ft | 299 kts | 45° |
| 2026-05-06 21:17 | 39.84738 | -3.89118 | 12560 ft | 298 kts | 46° |
| 2026-05-06 21:18 | 39.86163 | -3.87228 | 12265 ft | 296 kts | 46° |
| 2026-05-06 21:18 | 39.87597 | -3.85322 | 11978 ft | 294 kts | 46° |
| 2026-05-06 21:18 | 39.89026 | -3.83424 | 11697 ft | 292 kts | 46° |
| 2026-05-06 21:18 | 39.90446 | -3.81535 | 11409 ft | 291 kts | 46° |
| 2026-05-06 21:19 | 39.91856 | -3.79660 | 11135 ft | 289 kts | 46° |
| 2026-05-06 21:19 | 39.93257 | -3.77793 | 10856 ft | 287 kts | 46° |
| 2026-05-06 21:19 | 39.94649 | -3.75938 | 10568 ft | 286 kts | 46° |
| 2026-05-06 21:19 | 39.96036 | -3.74088 | 10292 ft | 284 kts | 46° |
| 2026-05-06 21:20 | 39.97415 | -3.72248 | 10024 ft | 283 kts | 46° |
| 2026-05-06 21:20 | 39.98780 | -3.70424 | 9748 ft | 282 kts | 46° |
| 2026-05-06 21:20 | 40.00145 | -3.68602 | 9448 ft | 281 kts | 46° |
| 2026-05-06 21:20 | 40.01504 | -3.66785 | 9156 ft | 279 kts | 46° |
| 2026-05-06 21:21 | 40.02854 | -3.64980 | 8878 ft | 277 kts | 46° |
| 2026-05-06 21:21 | 40.04196 | -3.63183 | 8603 ft | 275 kts | 46° |
| 2026-05-06 21:21 | 40.05527 | -3.61401 | 8334 ft | 273 kts | 46° |
| 2026-05-06 21:21 | 40.06849 | -3.59630 | 8070 ft | 271 kts | 46° |
| 2026-05-06 21:22 | 40.08161 | -3.57870 | 7812 ft | 270 kts | 46° |
| 2026-05-06 21:22 | 40.09467 | -3.56118 | 7545 ft | 268 kts | 46° |
| 2026-05-06 21:22 | 40.10765 | -3.54375 | 7283 ft | 267 kts | 46° |
| 2026-05-06 21:22 | 40.12055 | -3.52642 | 7015 ft | 265 kts | 46° |
| 2026-05-06 21:23 | 40.13338 | -3.50919 | 6738 ft | 264 kts | 46° |
| 2026-05-06 21:23 | 40.14616 | -3.49201 | 6474 ft | 262 kts | 46° |
| 2026-05-06 21:23 | 40.15870 | -3.47513 | 6202 ft | 255 kts | 46° |
| 2026-05-06 21:23 | 40.17093 | -3.45875 | 5910 ft | 249 kts | 45° |
| 2026-05-06 21:24 | 40.18351 | -3.44352 | 5583 ft | 244 kts | 43° |
| 2026-05-06 21:24 | 40.19608 | -3.42886 | 5271 ft | 240 kts | 43° |
| 2026-05-06 21:24 | 40.20861 | -3.41439 | 4967 ft | 241 kts | 40° |
| 2026-05-06 21:24 | 40.22280 | -3.40250 | 4645 ft | 244 kts | 30° |
| 2026-05-06 21:25 | 40.23785 | -3.39187 | 4308 ft | 247 kts | 29° |
| 2026-05-06 21:25 | 40.25369 | -3.38398 | 4010 ft | 241 kts | 5° |
| 2026-05-06 21:25 | 40.26979 | -3.38463 | 3999 ft | 225 kts | 354° |
| 2026-05-06 21:25 | 40.28489 | -3.38730 | 3990 ft | 217 kts | 353° |
| 2026-05-06 21:26 | 40.29967 | -3.39054 | 3980 ft | 215 kts | 343° |
| 2026-05-06 21:26 | 40.31256 | -3.40059 | 4012 ft | 219 kts | 321° |
| 2026-05-06 21:26 | 40.32452 | -3.41295 | 4000 ft | 217 kts | 324° |
| 2026-05-06 21:26 | 40.33633 | -3.42464 | 3985 ft | 209 kts | 323° |
| 2026-05-06 21:27 | 40.34771 | -3.43614 | 4009 ft | 204 kts | 323° |
| 2026-05-06 21:27 | 40.35872 | -3.44737 | 4006 ft | 198 kts | 323° |
| 2026-05-06 21:27 | 40.36947 | -3.45836 | 3995 ft | 195 kts | 323° |
| 2026-05-06 21:27 | 40.38001 | -3.46913 | 3974 ft | 188 kts | 323° |
| 2026-05-06 21:28 | 40.39027 | -3.47960 | 3785 ft | 185 kts | 323° |
| 2026-05-06 21:28 | 40.40038 | -3.48992 | 3538 ft | 183 kts | 323° |
| 2026-05-06 21:28 | 40.41024 | -3.49998 | 3297 ft | 174 kts | 323° |
| 2026-05-06 21:28 | 40.41933 | -3.50927 | 3110 ft | 166 kts | 323° |
| 2026-05-06 21:29 | 40.42835 | -3.51843 | 2842 ft | 162 kts | 323° |
| 2026-05-06 21:29 | 40.43712 | -3.52743 | 2617 ft | 158 kts | 323° |
| 2026-05-06 21:29 | 40.44564 | -3.53620 | 2425 ft | 154 kts | 323° |
| 2026-05-06 21:29 | 40.45415 | -3.54481 | 2209 ft | 156 kts | 324° |
| 2026-05-06 21:30 | 40.46267 | -3.55345 | 2034 ft | 155 kts | 324° |
| 2026-05-06 21:30 | 40.47046 | -3.56135 | 1980 ft | 125 kts | 322° |
| 2026-05-06 21:30 | 40.47563 | -3.56662 | 1979 ft | 65 kts | 322° |
| 2026-05-06 21:30 | 40.47883 | -3.56987 | 1979 ft | 51 kts | 322° |
| 2026-05-06 21:31 | 40.48012 | -3.57136 | 1981 ft | 13 kts | 290° |
| 2026-05-06 21:31 | 40.47983 | -3.57239 | 1982 ft | 12 kts | 233° |
| 2026-05-06 21:31 | 40.47916 | -3.57293 | 1983 ft | 9 kts | 176° |
| 2026-05-06 21:31 | 40.47865 | -3.57245 | 1979 ft | 9 kts | 139° |
| 2026-05-06 21:32 | 40.47819 | -3.57192 | 1982 ft | 9 kts | 140° |
| 2026-05-06 21:32 | 40.47724 | -3.57098 | 1984 ft | 9 kts | 143° |
| 2026-05-06 21:32 | 40.47661 | -3.57036 | 1982 ft | 13 kts | 143° |
| 2026-05-06 21:33 | 40.47575 | -3.56947 | 1979 ft | 18 kts | 141° |
| 2026-05-06 21:33 | 40.47479 | -3.56849 | 1979 ft | 17 kts | 142° |
| 2026-05-06 21:33 | 40.47387 | -3.56755 | 1982 ft | 17 kts | 142° |
| 2026-05-06 21:33 | 40.47297 | -3.56664 | 1983 ft | 16 kts | 141° |
| 2026-05-06 21:34 | 40.47213 | -3.56575 | 1980 ft | 15 kts | 141° |
| 2026-05-06 21:34 | 40.47128 | -3.56496 | 1983 ft | 15 kts | 154° |
| 2026-05-06 21:34 | 40.47034 | -3.56459 | 1979 ft | 14 kts | 170° |
| 2026-05-06 21:34 | 40.46942 | -3.56451 | 1983 ft | 13 kts | 184° |
| 2026-05-06 21:35 | 40.46853 | -3.56459 | 1979 ft | 13 kts | 183° |
| 2026-05-06 21:35 | 40.46795 | -3.56508 | 1979 ft | 10 kts | 250° |
| 2026-05-06 21:35 | 40.46756 | -3.56574 | 1983 ft | 9 kts | 249° |
| 2026-05-06 21:35 | 40.46757 | -3.56645 | 1979 ft | 8 kts | 228° |
| 2026-05-06 21:36 | 40.46706 | -3.56658 | 1979 ft | 7 kts | 183° |
| 2026-05-06 21:36 | 40.46690 | -3.56703 | 1981 ft | 6 kts | 289° |
| 2026-05-06 21:36 | 40.46702 | -3.56756 | 1980 ft | 6 kts | 280° |
| 2026-05-06 21:36 | 40.46706 | -3.56784 | 1979 ft | 0 kts | 282° |